createdAt,value
2019-06-01T00:00:29.918Z,1017.27
2019-06-01T00:01:29.897Z,1017.23
2019-06-01T00:02:29.889Z,1017.23
2019-06-01T00:03:29.883Z,1017.26
2019-06-01T00:04:29.920Z,1017.24
2019-06-01T00:05:29.866Z,1017.27
2019-06-01T00:06:29.854Z,1017.24
2019-06-01T00:07:38.926Z,1017.23
2019-06-01T00:08:40.211Z,1017.25
2019-06-01T00:09:29.815Z,1017.27
2019-06-01T00:10:29.996Z,1017.29
2019-06-01T00:11:29.781Z,1017.25
2019-06-01T00:12:29.780Z,1017.23
2019-06-01T00:13:29.809Z,1017.24
2019-06-01T00:14:29.795Z,1017.26
2019-06-01T00:15:29.752Z,1017.26
2019-06-01T00:16:29.735Z,1017.26
2019-06-01T00:17:29.833Z,1017.27
2019-06-01T00:18:29.714Z,1017.25
2019-06-01T00:19:29.706Z,1017.29
2019-06-01T00:20:29.715Z,1017.28
2019-06-01T00:21:29.677Z,1017.30
2019-06-01T00:22:29.682Z,1017.27
2019-06-01T00:23:29.675Z,1017.30
2019-06-01T00:24:29.652Z,1017.19
2019-06-01T00:25:29.671Z,1017.21
2019-06-01T00:26:29.679Z,1017.25
2019-06-01T00:27:29.612Z,1017.25
2019-06-01T00:28:29.621Z,1017.21
2019-06-01T00:29:29.650Z,1017.18
2019-06-01T00:30:29.632Z,1017.23
2019-06-01T00:31:29.625Z,1017.22
2019-06-01T00:32:29.591Z,1017.22
2019-06-01T00:33:29.566Z,1017.19
2019-06-01T00:34:29.571Z,1017.20
2019-06-01T00:35:29.547Z,1017.20
2019-06-01T00:36:29.539Z,1017.22
2019-06-01T00:37:29.545Z,1017.18
2019-06-01T00:38:29.496Z,1017.21
2019-06-01T00:39:29.508Z,1017.26
2019-06-01T00:40:29.483Z,1017.25
2019-06-01T00:41:29.490Z,1017.25
2019-06-01T00:42:29.519Z,1017.22
2019-06-01T00:43:29.443Z,1017.18
2019-06-01T00:44:29.484Z,1017.21
2019-06-01T00:45:29.422Z,1017.21
2019-06-01T00:46:29.444Z,1017.19
2019-06-01T00:47:29.407Z,1017.19
2019-06-01T00:48:29.443Z,1017.19
2019-06-01T00:49:29.426Z,1017.17
2019-06-01T00:50:29.379Z,1017.17
2019-06-01T00:51:29.363Z,1017.21
2019-06-01T00:52:29.356Z,1017.19
2019-06-01T00:53:29.369Z,1017.17
2019-06-01T00:54:29.350Z,1017.23
2019-06-01T00:55:29.320Z,1017.19
2019-06-01T00:56:29.381Z,1017.18
2019-06-01T00:57:29.311Z,1017.22
2019-06-01T00:58:29.335Z,1017.24
2019-06-01T00:59:29.284Z,1017.23
2019-06-01T01:00:42.889Z,1017.23
2019-06-01T01:01:30.255Z,1017.23
2019-06-01T01:02:29.252Z,1017.21
2019-06-01T01:03:29.245Z,1017.17
2019-06-01T01:04:29.216Z,1017.19
2019-06-01T01:05:29.205Z,1017.19
2019-06-01T01:06:29.187Z,1017.18
2019-06-01T01:07:29.190Z,1017.14
2019-06-01T01:08:29.207Z,1017.17
2019-06-01T01:09:29.165Z,1017.15
2019-06-01T01:10:29.194Z,1017.12
2019-06-01T01:11:29.154Z,1017.14
2019-06-01T01:12:29.135Z,1017.11
2019-06-01T01:13:29.124Z,1017.13
2019-06-01T01:14:29.115Z,1017.11
2019-06-01T01:15:29.106Z,1017.14
2019-06-01T01:16:29.088Z,1017.16
2019-06-01T01:17:29.064Z,1017.11
2019-06-01T01:18:29.063Z,1017.16
2019-06-01T01:19:29.131Z,1017.23
2019-06-01T01:20:29.067Z,1017.20
2019-06-01T01:21:29.083Z,1017.17
2019-06-01T01:22:29.021Z,1017.19
2019-06-01T01:23:29.028Z,1017.20
2019-06-01T01:24:29.030Z,1017.19
2019-06-01T01:25:28.995Z,1017.19
2019-06-01T01:26:28.984Z,1017.18
2019-06-01T01:27:28.997Z,1017.16
2019-06-01T01:28:28.970Z,1017.20
2019-06-01T01:29:28.973Z,1017.15
2019-06-01T01:30:28.939Z,1017.13
2019-06-01T01:31:28.940Z,1017.13
2019-06-01T01:32:28.921Z,1017.13
2019-06-01T01:33:28.925Z,1017.13
2019-06-01T01:34:28.907Z,1017.14
2019-06-01T01:35:28.901Z,1017.15
2019-06-01T01:36:28.886Z,1017.12
2019-06-01T01:37:28.872Z,1017.10
2019-06-01T01:38:28.873Z,1017.10
2019-06-01T01:39:28.846Z,1017.08
2019-06-01T01:40:28.844Z,1017.11
2019-06-01T01:41:28.824Z,1017.09
2019-06-01T01:42:28.825Z,1017.08
2019-06-01T01:43:28.806Z,1017.10
2019-06-01T01:44:28.801Z,1017.07
2019-06-01T01:45:28.799Z,1017.02
2019-06-01T01:46:28.759Z,1017.01
2019-06-01T01:47:28.767Z,1017.00
2019-06-01T01:48:28.750Z,1016.98
2019-06-01T01:49:28.750Z,1016.93
2019-06-01T01:50:28.756Z,1017.01
2019-06-01T01:51:28.756Z,1016.99
2019-06-01T01:52:28.697Z,1016.96
2019-06-01T01:53:28.707Z,1017.00
2019-06-01T01:54:28.683Z,1017.00
2019-06-01T01:55:28.689Z,1017.00
2019-06-01T01:56:28.703Z,1017.01
2019-06-01T01:57:28.641Z,1017.02
2019-06-01T01:58:28.638Z,1017.00
2019-06-01T01:59:28.642Z,1016.99
2019-06-01T02:00:29.440Z,1016.98
2019-06-01T02:01:28.737Z,1016.99
2019-06-01T02:02:28.610Z,1016.98
2019-06-01T02:03:28.640Z,1016.98
2019-06-01T02:04:28.584Z,1016.97
2019-06-01T02:05:28.571Z,1016.91
2019-06-01T02:06:29.354Z,1016.98
2019-06-01T02:07:28.535Z,1016.93
2019-06-01T02:08:28.531Z,1016.96
2019-06-01T02:09:28.534Z,1016.93
2019-06-01T02:10:28.517Z,1016.95
2019-06-01T02:11:28.497Z,1016.92
2019-06-01T02:12:28.497Z,1016.92
2019-06-01T02:13:28.487Z,1016.94
2019-06-01T02:14:28.455Z,1016.90
2019-06-01T02:15:28.454Z,1016.91
2019-06-01T02:16:28.442Z,1016.88
2019-06-01T02:17:28.450Z,1016.86
2019-06-01T02:18:28.427Z,1016.86
2019-06-01T02:19:28.426Z,1016.82
2019-06-01T02:20:28.419Z,1016.83
2019-06-01T02:21:28.400Z,1016.81
2019-06-01T02:22:28.385Z,1016.82
2019-06-01T02:23:28.386Z,1016.80
2019-06-01T02:24:28.355Z,1016.83
2019-06-01T02:25:28.363Z,1016.79
2019-06-01T02:26:28.334Z,1016.80
2019-06-01T02:27:28.330Z,1016.82
2019-06-01T02:28:28.341Z,1016.82
2019-06-01T02:29:28.352Z,1016.79
2019-06-01T02:30:28.288Z,1016.78
2019-06-01T02:31:40.974Z,1016.78
2019-06-01T02:32:29.288Z,1016.80
2019-06-01T02:33:28.282Z,1016.76
2019-06-01T02:34:28.252Z,1016.73
2019-06-01T02:35:28.271Z,1016.76
2019-06-01T02:36:28.224Z,1016.76
2019-06-01T02:37:28.204Z,1016.74
2019-06-01T02:38:28.205Z,1016.74
2019-06-01T02:39:28.232Z,1016.71
2019-06-01T02:40:28.210Z,1016.73
2019-06-01T02:41:28.201Z,1016.72
2019-06-01T02:42:28.174Z,1016.67
2019-06-01T02:43:28.155Z,1016.66
2019-06-01T02:44:28.157Z,1016.64
2019-06-01T02:45:28.190Z,1016.63
2019-06-01T02:46:28.166Z,1016.65
2019-06-01T02:47:28.122Z,1016.62
2019-06-01T02:48:28.101Z,1016.61
2019-06-01T02:49:28.090Z,1016.60
2019-06-01T02:50:28.075Z,1016.65
2019-06-01T02:51:28.090Z,1016.64
2019-06-01T02:52:28.053Z,1016.64
2019-06-01T02:53:28.072Z,1016.67
2019-06-01T02:54:28.116Z,1016.64
2019-06-01T02:55:28.050Z,1016.64
2019-06-01T02:56:28.018Z,1016.66
2019-06-01T02:57:28.013Z,1016.65
2019-06-01T02:58:27.988Z,1016.66
2019-06-01T02:59:27.980Z,1016.63
2019-06-01T03:00:27.991Z,1016.63
2019-06-01T03:01:27.970Z,1016.63
2019-06-01T03:02:27.958Z,1016.67
2019-06-01T03:03:27.962Z,1016.66
2019-06-01T03:04:27.937Z,1016.68
2019-06-01T03:05:27.920Z,1016.70
2019-06-01T03:06:27.931Z,1016.70
2019-06-01T03:07:27.915Z,1016.67
2019-06-01T03:08:27.892Z,1016.69
2019-06-01T03:09:27.912Z,1016.65
2019-06-01T03:10:27.866Z,1016.67
2019-06-01T03:11:27.895Z,1016.69
2019-06-01T03:12:27.852Z,1016.69
2019-06-01T03:13:27.824Z,1016.73
2019-06-01T03:14:27.841Z,1016.67
2019-06-01T03:15:27.814Z,1016.69
2019-06-01T03:16:27.812Z,1016.68
2019-06-01T03:17:27.828Z,1016.69
2019-06-01T03:18:27.770Z,1016.68
2019-06-01T03:19:27.843Z,1016.67
2019-06-01T03:20:27.760Z,1016.65
2019-06-01T03:21:27.744Z,1016.71
2019-06-01T03:22:27.794Z,1016.64
2019-06-01T03:23:27.756Z,1016.69
2019-06-01T03:24:27.730Z,1016.62
2019-06-01T03:25:27.711Z,1016.64
2019-06-01T03:26:27.713Z,1016.65
2019-06-01T03:27:27.674Z,1016.68
2019-06-01T03:28:27.664Z,1016.60
2019-06-01T03:29:27.677Z,1016.69
2019-06-01T03:30:27.666Z,1016.64
2019-06-01T03:31:27.631Z,1016.65
2019-06-01T03:32:35.975Z,1016.66
2019-06-01T03:33:28.618Z,1016.62
2019-06-01T03:34:27.634Z,1016.66
2019-06-01T03:35:27.643Z,1016.61
2019-06-01T03:36:27.589Z,1016.62
2019-06-01T03:37:27.591Z,1016.62
2019-06-01T03:38:27.555Z,1016.61
2019-06-01T03:39:27.565Z,1016.59
2019-06-01T03:40:27.541Z,1016.59
2019-06-01T03:41:27.530Z,1016.61
2019-06-01T03:42:27.519Z,1016.65
2019-06-01T03:43:27.534Z,1016.64
2019-06-01T03:44:27.498Z,1016.61
2019-06-01T03:45:27.536Z,1016.61
2019-06-01T03:46:27.500Z,1016.60
2019-06-01T03:47:27.471Z,1016.66
2019-06-01T03:48:27.468Z,1016.70
2019-06-01T03:49:27.605Z,1016.72
2019-06-01T03:50:27.487Z,1016.71
2019-06-01T03:51:27.450Z,1016.70
2019-06-01T03:52:27.402Z,1016.70
2019-06-01T03:53:27.410Z,1016.73
2019-06-01T03:54:27.421Z,1016.74
2019-06-01T03:55:27.379Z,1016.71
2019-06-01T03:56:27.361Z,1016.72
2019-06-01T03:57:27.382Z,1016.74
2019-06-01T03:58:27.360Z,1016.75
2019-06-01T03:59:27.645Z,1016.76
2019-06-01T04:00:27.350Z,1016.77
2019-06-01T04:01:27.348Z,1016.80
2019-06-01T04:02:33.180Z,1016.79
2019-06-01T04:03:28.297Z,1016.75
2019-06-01T04:04:27.274Z,1016.80
2019-06-01T04:05:27.280Z,1016.78
2019-06-01T04:06:27.305Z,1016.78
2019-06-01T04:07:27.271Z,1016.80
2019-06-01T04:08:27.247Z,1016.81
2019-06-01T04:09:27.223Z,1016.81
2019-06-01T04:10:27.227Z,1016.77
2019-06-01T04:11:27.217Z,1016.81
2019-06-01T04:12:27.187Z,1016.79
2019-06-01T04:13:27.215Z,1016.85
2019-06-01T04:14:39.561Z,1016.82
2019-06-01T04:15:27.141Z,1016.78
2019-06-01T04:16:27.145Z,1016.78
2019-06-01T04:17:27.131Z,1016.85
2019-06-01T04:18:27.156Z,1016.78
2019-06-01T04:19:27.129Z,1016.79
2019-06-01T04:20:27.149Z,1016.82
2019-06-01T04:21:27.105Z,1016.85
2019-06-01T04:22:27.073Z,1016.80
2019-06-01T04:23:27.098Z,1016.83
2019-06-01T04:24:27.088Z,1016.85
2019-06-01T04:25:27.033Z,1016.85
2019-06-01T04:26:27.086Z,1016.89
2019-06-01T04:27:27.094Z,1016.87
2019-06-01T04:28:27.025Z,1016.86
2019-06-01T04:29:27.067Z,1016.87
2019-06-01T04:30:27.030Z,1016.83
2019-06-01T04:31:27.019Z,1016.89
2019-06-01T04:32:27.034Z,1016.89
2019-06-01T04:33:27.014Z,1016.88
2019-06-01T04:34:27.021Z,1016.85
2019-06-01T04:35:26.992Z,1016.82
2019-06-01T04:36:26.940Z,1016.84
2019-06-01T04:37:26.943Z,1016.81
2019-06-01T04:38:26.983Z,1016.85
2019-06-01T04:39:26.903Z,1016.82
2019-06-01T04:40:26.970Z,1016.80
2019-06-01T04:41:26.906Z,1016.83
2019-06-01T04:42:26.900Z,1016.80
2019-06-01T04:43:26.898Z,1016.82
2019-06-01T04:44:26.868Z,1016.86
2019-06-01T04:45:26.879Z,1016.85
2019-06-01T04:46:26.889Z,1016.85
2019-06-01T04:47:26.820Z,1016.85
2019-06-01T04:48:26.814Z,1016.87
2019-06-01T04:49:26.803Z,1016.90
2019-06-01T04:50:26.837Z,1016.87
2019-06-01T04:51:26.768Z,1016.90
2019-06-01T04:52:26.803Z,1016.89
2019-06-01T04:53:26.782Z,1016.89
2019-06-01T04:54:26.764Z,1016.92
2019-06-01T04:55:26.773Z,1016.98
2019-06-01T04:56:26.782Z,1016.93
2019-06-01T04:57:26.719Z,1016.91
2019-06-01T04:58:26.830Z,1016.93
2019-06-01T04:59:26.683Z,1016.92
2019-06-01T05:00:28.037Z,1016.96
2019-06-01T05:01:26.743Z,1016.96
2019-06-01T05:02:26.709Z,1016.95
2019-06-01T05:03:26.684Z,1016.97
2019-06-01T05:04:26.663Z,1016.98
2019-06-01T05:05:26.701Z,1016.94
2019-06-01T05:06:26.691Z,1016.93
2019-06-01T05:07:26.696Z,1016.94
2019-06-01T05:08:26.632Z,1016.98
2019-06-01T05:09:26.642Z,1016.96
2019-06-01T05:10:26.602Z,1016.99
2019-06-01T05:11:26.614Z,1016.99
2019-06-01T05:12:26.557Z,1017.00
2019-06-01T05:13:26.543Z,1016.97
2019-06-01T05:14:26.533Z,1016.96
2019-06-01T05:15:26.524Z,1017.01
2019-06-01T05:16:26.564Z,1016.93
2019-06-01T05:17:26.536Z,1016.97
2019-06-01T05:18:26.512Z,1017.00
2019-06-01T05:19:26.514Z,1017.00
2019-06-01T05:20:26.468Z,1017.02
2019-06-01T05:21:26.469Z,1017.02
2019-06-01T05:22:26.580Z,1017.03
2019-06-01T05:23:26.481Z,1016.98
2019-06-01T05:24:26.495Z,1017.01
2019-06-01T05:25:26.442Z,1017.02
2019-06-01T05:26:26.430Z,1017.03
2019-06-01T05:27:26.652Z,1017.00
2019-06-01T05:28:26.599Z,1017.00
2019-06-01T05:29:26.427Z,1016.97
2019-06-01T05:30:26.415Z,1017.00
2019-06-01T05:31:26.356Z,1016.98
2019-06-01T05:32:26.475Z,1017.00
2019-06-01T05:33:37.054Z,1016.98
2019-06-01T05:34:27.380Z,1016.97
2019-06-01T05:35:26.294Z,1016.98
2019-06-01T05:36:26.295Z,1016.97
2019-06-01T05:37:26.277Z,1016.99
2019-06-01T05:38:26.302Z,1017.01
2019-06-01T05:39:26.282Z,1017.02
2019-06-01T05:40:26.255Z,1017.00
2019-06-01T05:41:26.278Z,1017.02
2019-06-01T05:42:26.222Z,1017.02
2019-06-01T05:43:26.287Z,1017.01
2019-06-01T05:44:26.224Z,1016.98
2019-06-01T05:45:26.245Z,1017.01
2019-06-01T05:46:26.253Z,1016.99
2019-06-01T05:47:26.185Z,1016.98
2019-06-01T05:48:30.407Z,1017.02
2019-06-01T05:49:26.183Z,1017.00
2019-06-01T05:50:26.190Z,1017.00
2019-06-01T05:51:26.158Z,1016.99
2019-06-01T05:52:26.110Z,1016.96
2019-06-01T05:53:26.128Z,1016.99
2019-06-01T05:54:26.116Z,1016.98
2019-06-01T05:55:26.167Z,1017.02
2019-06-01T05:56:26.136Z,1016.96
2019-06-01T05:57:26.085Z,1016.99
2019-06-01T05:58:29.194Z,1016.98
2019-06-01T05:59:26.082Z,1017.04
2019-06-01T06:00:26.114Z,1017.03
2019-06-01T06:01:26.103Z,1017.04
2019-06-01T06:02:26.036Z,1017.00
2019-06-01T06:03:39.588Z,1017.03
2019-06-01T06:04:27.002Z,1017.03
2019-06-01T06:05:26.021Z,1017.01
2019-06-01T06:06:25.991Z,1017.02
2019-06-01T06:07:25.971Z,1017.01
2019-06-01T06:08:25.968Z,1017.04
2019-06-01T06:09:25.992Z,1017.01
2019-06-01T06:10:25.961Z,1016.99
2019-06-01T06:11:25.958Z,1017.01
2019-06-01T06:12:25.900Z,1016.99
2019-06-01T06:13:26.047Z,1016.99
2019-06-01T06:14:25.988Z,1017.01
2019-06-01T06:15:25.904Z,1017.01
2019-06-01T06:16:25.951Z,1017.02
2019-06-01T06:17:25.882Z,1017.04
2019-06-01T06:18:25.975Z,1017.01
2019-06-01T06:19:25.896Z,1017.05
2019-06-01T06:20:25.892Z,1017.07
2019-06-01T06:21:25.887Z,1017.06
2019-06-01T06:22:25.843Z,1017.07
2019-06-01T06:23:25.789Z,1017.07
2019-06-01T06:24:28.850Z,1017.06
2019-06-01T06:28:05.326Z,1017.08
2019-06-01T06:30:26.357Z,1017.07
2019-06-01T06:34:25.734Z,1017.06
2019-06-01T06:35:26.630Z,1017.05
2019-06-01T06:38:31.712Z,1017.13
2019-06-01T06:39:30.745Z,1017.06
2019-06-01T06:40:32.428Z,1017.10
2019-06-01T06:41:31.261Z,1017.07
2019-06-01T06:42:38.207Z,1017.10
2019-06-01T06:43:35.759Z,1017.08
2019-06-01T06:44:45.675Z,1017.05
2019-06-01T06:45:31.977Z,1017.13
2019-06-01T06:49:50.098Z,1017.10
2019-06-01T06:50:44.186Z,1017.09
2019-06-01T06:51:43.193Z,1017.06
2019-06-01T06:52:42.599Z,1017.03
2019-06-01T06:53:44.613Z,1017.10
2019-06-01T06:54:43.095Z,1017.04
2019-06-01T06:55:42.586Z,1017.03
2019-06-01T06:56:42.487Z,1017.04
2019-06-01T06:57:42.430Z,1017.09
2019-06-01T07:00:33.570Z,1017.08
2019-06-01T07:04:25.357Z,1016.99
2019-06-01T07:05:25.580Z,1017.05
2019-06-01T07:06:35.389Z,1017.04
2019-06-01T07:07:25.700Z,1017.06
2019-06-01T07:10:14.829Z,1017.03
2019-06-01T07:11:14.831Z,1017.06
2019-06-01T07:12:14.894Z,1017.05
2019-06-01T07:13:14.811Z,1017.04
2019-06-01T07:14:14.796Z,1017.06
2019-06-01T07:15:14.795Z,1017.03
2019-06-01T07:16:14.908Z,1017.06
2019-06-01T07:17:15.852Z,1017.03
2019-06-01T07:18:23.961Z,1017.08
2019-06-01T07:19:15.103Z,1017.03
2019-06-01T07:20:14.729Z,1017.06
2019-06-01T07:21:14.834Z,1017.07
2019-06-01T07:22:17.092Z,1017.05
2019-06-01T07:23:14.683Z,1017.05
2019-06-01T07:24:14.741Z,1017.05
2019-06-01T07:25:14.763Z,1017.06
2019-06-01T07:26:14.724Z,1017.05
2019-06-01T07:27:14.770Z,1017.08
2019-06-01T07:28:14.799Z,1017.08
2019-06-01T07:29:15.835Z,1017.10
2019-06-01T07:30:14.769Z,1017.07
2019-06-01T07:31:14.641Z,1017.02
2019-06-01T07:32:14.801Z,1017.04
2019-06-01T07:33:14.786Z,1017.02
2019-06-01T07:34:29.654Z,1017.03
2019-06-01T07:35:15.698Z,1016.99
2019-06-01T07:36:14.681Z,1016.99
2019-06-01T07:37:14.550Z,1017.07
2019-06-01T07:38:14.619Z,1017.10
2019-06-01T07:39:14.648Z,1017.06
2019-06-01T07:40:14.652Z,1017.08
2019-06-01T07:41:14.523Z,1017.08
2019-06-01T07:42:15.321Z,1017.09
2019-06-01T07:43:14.524Z,1017.04
2019-06-01T07:44:14.548Z,1017.05
2019-06-01T07:45:14.496Z,1017.08
2019-06-01T07:46:14.455Z,1017.09
2019-06-01T07:47:14.457Z,1017.12
2019-06-01T07:48:14.731Z,1017.10
2019-06-01T07:49:15.497Z,1017.11
2019-06-01T07:50:14.471Z,1017.08
2019-06-01T07:51:14.826Z,1017.06
2019-06-01T07:52:14.410Z,1017.07
2019-06-01T07:53:14.383Z,1017.12
2019-06-01T07:54:14.486Z,1017.13
2019-06-01T07:55:14.365Z,1017.12
2019-06-01T07:56:14.473Z,1017.12
2019-06-01T07:57:14.400Z,1017.07
2019-06-01T07:58:15.326Z,1017.13
2019-06-01T07:59:14.395Z,1017.15
2019-06-01T08:00:14.352Z,1017.17
2019-06-01T08:01:14.466Z,1017.22
2019-06-01T08:02:14.436Z,1017.21
2019-06-01T08:03:14.325Z,1017.21
2019-06-01T08:04:15.077Z,1017.23
2019-06-01T08:05:14.383Z,1017.20
2019-06-01T08:06:14.238Z,1017.20
2019-06-01T08:07:14.265Z,1017.18
2019-06-01T08:08:14.302Z,1017.19
2019-06-01T08:09:14.213Z,1017.14
2019-06-01T08:10:14.203Z,1017.13
2019-06-01T08:11:14.829Z,1017.14
2019-06-01T08:12:14.171Z,1017.15
2019-06-01T08:13:14.199Z,1017.16
2019-06-01T08:14:14.282Z,1017.15
2019-06-01T08:15:14.195Z,1017.12
2019-06-01T08:16:14.304Z,1017.14
2019-06-01T08:17:14.135Z,1017.13
2019-06-01T08:18:14.196Z,1017.12
2019-06-01T08:19:14.184Z,1017.12
2019-06-01T08:20:14.124Z,1017.14
2019-06-01T08:21:14.142Z,1017.17
2019-06-01T08:22:14.087Z,1017.17
2019-06-01T08:23:14.110Z,1017.18
2019-06-01T08:24:14.435Z,1017.16
2019-06-01T08:25:14.151Z,1017.16
2019-06-01T08:26:14.110Z,1017.13
2019-06-01T08:27:14.024Z,1017.10
2019-06-01T08:28:14.039Z,1017.13
2019-06-01T08:29:14.046Z,1017.12
2019-06-01T08:30:14.011Z,1017.13
2019-06-01T08:31:14.087Z,1017.07
2019-06-01T08:32:14.008Z,1017.07
2019-06-01T08:33:13.976Z,1017.04
2019-06-01T08:34:13.974Z,1017.05
2019-06-01T08:35:14.083Z,1017.01
2019-06-01T08:36:17.339Z,1016.99
2019-06-01T08:37:13.993Z,1016.95
2019-06-01T08:38:14.122Z,1016.99
2019-06-01T08:39:13.916Z,1017.00
2019-06-01T08:40:13.953Z,1017.04
2019-06-01T08:41:13.858Z,1016.97
2019-06-01T08:42:14.129Z,1017.00
2019-06-01T08:43:18.179Z,1017.07
2019-06-01T08:44:13.919Z,1017.08
2019-06-01T08:45:19.102Z,1017.04
2019-06-01T08:46:14.483Z,1016.97
2019-06-01T08:47:13.801Z,1016.95
2019-06-01T08:48:13.885Z,1016.93
2019-06-01T08:49:13.914Z,1016.98
2019-06-01T08:50:13.840Z,1016.93
2019-06-01T08:51:13.834Z,1017.02
2019-06-01T08:52:13.978Z,1016.96
2019-06-01T08:53:13.719Z,1016.93
2019-06-01T08:54:13.998Z,1016.95
2019-06-01T08:55:14.345Z,1017.00
2019-06-01T08:56:14.039Z,1016.91
2019-06-01T08:57:13.742Z,1016.88
2019-06-01T08:58:13.711Z,1016.90
2019-06-01T08:59:13.684Z,1016.88
2019-06-01T09:00:13.913Z,1016.88
2019-06-01T09:01:13.653Z,1016.86
2019-06-01T09:02:13.771Z,1016.85
2019-06-01T09:03:13.681Z,1016.78
2019-06-01T09:04:13.757Z,1016.76
2019-06-01T09:05:24.248Z,1016.73
2019-06-01T09:06:14.748Z,1016.74
2019-06-01T09:07:13.593Z,1016.80
2019-06-01T09:08:14.936Z,1016.79
2019-06-01T09:09:14.785Z,1016.76
2019-06-01T09:10:13.725Z,1016.72
2019-06-01T09:11:14.399Z,1016.77
2019-06-01T09:12:13.519Z,1016.72
2019-06-01T09:13:14.023Z,1016.69
2019-06-01T09:14:15.160Z,1016.74
2019-06-01T09:15:13.633Z,1016.70
2019-06-01T09:16:13.493Z,1016.67
2019-06-01T09:17:18.211Z,1016.70
2019-06-01T09:18:15.353Z,1016.75
2019-06-01T09:19:13.506Z,1016.71
2019-06-01T09:20:14.359Z,1016.63
2019-06-01T09:21:13.586Z,1016.62
2019-06-01T09:22:13.510Z,1016.70
2019-06-01T09:23:14.567Z,1016.64
2019-06-01T09:24:13.489Z,1016.68
2019-06-01T09:25:13.425Z,1016.66
2019-06-01T09:26:13.426Z,1016.63
2019-06-01T09:27:13.894Z,1016.69
2019-06-01T09:28:13.403Z,1016.66
2019-06-01T09:29:13.385Z,1016.70
2019-06-01T09:30:13.426Z,1016.70
2019-06-01T09:31:13.370Z,1016.68
2019-06-01T09:32:13.539Z,1016.66
2019-06-01T09:33:13.383Z,1016.62
2019-06-01T09:34:14.379Z,1016.63
2019-06-01T09:35:13.320Z,1016.64
2019-06-01T09:36:13.920Z,1016.61
2019-06-01T09:37:13.436Z,1016.64
2019-06-01T09:38:13.870Z,1016.58
2019-06-01T09:39:13.239Z,1016.63
2019-06-01T09:40:14.377Z,1016.57
2019-06-01T09:41:15.981Z,1016.60
2019-06-01T09:42:13.219Z,1016.61
2019-06-01T09:43:13.211Z,1016.61
2019-06-01T09:44:13.440Z,1016.62
2019-06-01T09:45:13.343Z,1016.63
2019-06-01T09:46:13.254Z,1016.59
2019-06-01T09:47:13.242Z,1016.66
2019-06-01T09:48:15.096Z,1016.60
2019-06-01T09:49:13.388Z,1016.57
2019-06-01T09:50:13.265Z,1016.54
2019-06-01T09:51:13.129Z,1016.50
2019-06-01T09:52:13.175Z,1016.54
2019-06-01T09:53:13.187Z,1016.50
2019-06-01T09:54:15.397Z,1016.51
2019-06-01T09:55:13.183Z,1016.57
2019-06-01T09:56:13.329Z,1016.55
2019-06-01T09:57:13.867Z,1016.54
2019-06-01T09:58:14.368Z,1016.53
2019-06-01T09:59:13.867Z,1016.48
2019-06-01T10:00:13.033Z,1016.50
2019-06-01T10:01:13.157Z,1016.51
2019-06-01T10:02:13.059Z,1016.57
2019-06-01T10:03:12.995Z,1016.51
2019-06-01T10:04:12.995Z,1016.51
2019-06-01T10:05:13.011Z,1016.56
2019-06-01T10:06:14.136Z,1016.48
2019-06-01T10:07:13.008Z,1016.45
2019-06-01T10:08:12.977Z,1016.55
2019-06-01T10:09:12.940Z,1016.47
2019-06-01T10:10:12.921Z,1016.48
2019-06-01T10:11:13.122Z,1016.51
2019-06-01T10:12:12.945Z,1016.54
2019-06-01T10:13:12.926Z,1016.51
2019-06-01T10:14:12.910Z,1016.41
2019-06-01T10:15:12.892Z,1016.43
2019-06-01T10:16:12.856Z,1016.39
2019-06-01T10:17:12.876Z,1016.40
2019-06-01T10:18:12.951Z,1016.40
2019-06-01T10:19:12.832Z,1016.42
2019-06-01T10:20:12.869Z,1016.36
2019-06-01T10:21:12.792Z,1016.37
2019-06-01T10:22:12.800Z,1016.38
2019-06-01T10:23:12.791Z,1016.40
2019-06-01T10:24:12.781Z,1016.33
2019-06-01T10:25:12.782Z,1016.29
2019-06-01T10:26:12.740Z,1016.30
2019-06-01T10:27:12.782Z,1016.33
2019-06-01T10:28:12.772Z,1016.33
2019-06-01T10:29:12.790Z,1016.33
2019-06-01T10:30:12.753Z,1016.33
2019-06-01T10:31:12.719Z,1016.32
2019-06-01T10:32:12.801Z,1016.26
2019-06-01T10:33:12.678Z,1016.27
2019-06-01T10:42:09.830Z,1016.15
2019-06-01T10:43:20.307Z,1016.17
2019-06-01T10:44:19.280Z,1016.14
2019-06-01T10:46:27.260Z,1016.17
2019-06-01T10:47:38.048Z,1016.15
2019-06-01T10:48:37.967Z,1016.12
2019-06-01T10:49:37.936Z,1016.13
2019-06-01T10:50:38.409Z,1016.18
2019-06-01T10:51:38.140Z,1016.12
2019-06-01T10:52:38.172Z,1016.11
2019-06-01T10:53:38.271Z,1016.17
2019-06-01T10:54:36.306Z,1016.10
2019-06-01T10:55:36.378Z,1016.08
2019-06-01T10:56:36.848Z,1016.03
2019-06-01T10:57:36.597Z,1015.99
2019-06-01T10:58:54.745Z,1015.97
2019-06-01T11:00:45.829Z,1015.96
2019-06-01T11:02:49.426Z,1016.05
2019-06-01T11:03:49.370Z,1016.01
2019-06-01T11:04:49.344Z,1015.94
2019-06-01T11:05:49.342Z,1015.93
2019-06-01T11:06:49.445Z,1015.87
2019-06-01T11:07:49.336Z,1015.90
2019-06-01T11:08:49.404Z,1015.98
2019-06-01T11:09:49.355Z,1015.94
2019-06-01T11:10:49.350Z,1015.90
2019-06-01T11:11:49.359Z,1015.91
2019-06-01T11:12:49.316Z,1015.85
2019-06-01T11:13:49.288Z,1015.91
2019-06-01T11:14:49.298Z,1015.96
2019-06-01T11:15:49.280Z,1015.89
2019-06-01T11:16:55.826Z,1015.87
2019-06-01T11:17:50.212Z,1015.83
2019-06-01T11:18:49.227Z,1015.86
2019-06-01T11:19:49.209Z,1015.86
2019-06-01T11:20:49.164Z,1015.78
2019-06-01T11:21:49.170Z,1015.84
2019-06-01T11:22:49.164Z,1015.77
2019-06-01T11:23:49.149Z,1015.70
2019-06-01T11:24:49.181Z,1015.66
2019-06-01T11:25:49.155Z,1015.69
2019-06-01T11:26:49.231Z,1015.73
2019-06-01T11:27:49.093Z,1015.76
2019-06-01T11:28:49.116Z,1015.75
2019-06-01T11:29:51.574Z,1015.74
2019-06-01T11:30:49.123Z,1015.75
2019-06-01T11:31:49.069Z,1015.76
2019-06-01T11:32:49.042Z,1015.75
2019-06-01T11:33:49.073Z,1015.72
2019-06-01T11:34:49.062Z,1015.73
2019-06-01T11:35:49.741Z,1015.67
2019-06-01T11:37:04.590Z,1015.68
2019-06-01T11:37:49.993Z,1015.63
2019-06-01T11:38:49.051Z,1015.62
2019-06-01T11:39:49.012Z,1015.67
2019-06-01T11:40:49.009Z,1015.59
2019-06-01T11:41:48.981Z,1015.62
2019-06-01T11:42:49.656Z,1015.62
2019-06-01T11:43:49.657Z,1015.54
2019-06-01T11:44:48.896Z,1015.66
2019-06-01T11:45:49.952Z,1015.66
2019-06-01T11:46:49.014Z,1015.63
2019-06-01T11:47:48.943Z,1015.60
2019-06-01T11:48:48.890Z,1015.56
2019-06-01T11:49:49.056Z,1015.50
2019-06-01T11:50:49.667Z,1015.51
2019-06-01T11:51:48.907Z,1015.54
2019-06-01T11:52:48.891Z,1015.53
2019-06-01T11:53:48.917Z,1015.57
2019-06-01T11:54:49.663Z,1015.48
2019-06-01T11:55:49.048Z,1015.75
2019-06-01T11:56:48.842Z,1015.86
2019-06-01T11:57:48.778Z,1015.90
2019-06-01T11:58:48.810Z,1015.82
2019-06-01T11:59:48.871Z,1015.88
2019-06-01T12:00:48.787Z,1015.72
2019-06-01T12:01:49.822Z,1015.80
2019-06-01T12:02:48.807Z,1015.92
2019-06-01T12:03:48.752Z,1015.88
2019-06-01T12:04:48.765Z,1015.88
2019-06-01T12:05:48.709Z,1015.94
2019-06-01T12:06:48.755Z,1015.98
2019-06-01T12:07:48.694Z,1015.97
2019-06-01T12:08:48.689Z,1015.92
2019-06-01T12:09:48.734Z,1016.00
2019-06-01T12:10:48.749Z,1015.94
2019-06-01T12:11:48.741Z,1016.00
2019-06-01T12:12:48.705Z,1015.94
2019-06-01T12:13:48.647Z,1016.01
2019-06-01T12:14:48.621Z,1015.97
2019-06-01T12:15:48.704Z,1016.04
2019-06-01T12:16:48.608Z,1015.98
2019-06-01T12:17:48.635Z,1015.90
2019-06-01T12:18:48.604Z,1015.98
2019-06-01T12:19:48.610Z,1015.91
2019-06-01T12:20:48.632Z,1015.92
2019-06-01T12:21:49.174Z,1015.95
2019-06-01T12:22:48.550Z,1015.90
2019-06-01T12:23:48.542Z,1015.92
2019-06-01T12:24:48.640Z,1015.97
2019-06-01T12:27:43.589Z,1015.62
2019-06-01T12:29:48.294Z,1015.74
2019-06-01T12:30:25.917Z,1015.35
2019-06-01T12:31:26.022Z,1015.79
2019-06-01T12:32:27.184Z,1015.79
2019-06-01T12:33:25.949Z,1015.29
2019-06-01T12:34:25.865Z,1015.25
2019-06-01T12:35:41.918Z,1015.63
2019-06-01T12:36:25.897Z,1015.56
2019-06-01T12:38:59.700Z,1015.69
2019-06-01T12:40:07.621Z,1015.73